METAR Data
IDs: Format: Raw Decoded Include TAF

Data at: 2057 UTC 22 Sep 2020

KOLG 222055Z AUTO 28003KT 10SM CLR 27/07 A3002 RMK AO1
KOLG 222035Z AUTO 27005KT 10SM CLR 27/07 A3002 RMK AO1
KOLG 222015Z AUTO 20003KT 10SM CLR 26/07 A3003 RMK AO1
KOLG 221955Z AUTO 28004KT 10SM CLR 26/08 A3003 RMK AO1
KOLG 221935Z AUTO 17005KT 10SM CLR 26/10 A3004 RMK AO1
KOLG 221915Z AUTO 21003KT 10SM CLR 26/09 A3005 RMK AO1
KOLG 221855Z AUTO 19003KT 10SM CLR 25/08 A3006 RMK AO1
KOLG 221835Z AUTO 21003KT 10SM CLR 25/08 A3007 RMK AO1
KOLG 221815Z AUTO 31003KT 10SM CLR 25/07 A3008 RMK AO1
KOLG 221755Z AUTO 24003KT 10SM CLR 25/10 A3009 RMK AO1
KOLG 221735Z AUTO 14003KT 10SM CLR 24/10 A3009 RMK AO1
KOLG 221715Z AUTO 00000KT 10SM CLR 23/10 A3010 RMK AO1
KOLG 221655Z AUTO 00000KT 10SM CLR 22/13 A3010 RMK AO1
KOLG 221635Z AUTO 00000KT 10SM CLR 21/13 A3010 RMK AO1
KOLG 221615Z AUTO 00000KT 10SM CLR 20/13 A3011 RMK AO1
KOLG 221555Z AUTO 00000KT 10SM CLR 19/14 A3012 RMK AO1
KOLG 221535Z AUTO 00000KT 10SM CLR 16/16 A3012 RMK AO1
KOLG 221515Z AUTO 24003KT 10SM CLR 15/15 A3012 RMK AO1
KOLG 221455Z AUTO 00000KT 10SM CLR 14/13 A3012 RMK AO1
KOLG 221435Z AUTO 00000KT 10SM BKN001 13/12 A3013 RMK AO1
KOLG 221415Z AUTO 00000KT 1SM OVC001 12/11 A3013 RMK AO1
KOLG 221355Z AUTO 00000KT 1/4SM OVC001 11/10 A3012 RMK AO1
KOLG 221335Z AUTO 00000KT 1/4SM OVC001 10/10 A3012 RMK AO1
KOLG 221315Z AUTO 00000KT M1/4SM OVC001 08/08 A3012 RMK AO1
KOLG 221255Z AUTO 00000KT M1/4SM OVC001 07/07 A3012 RMK AO1
KOLG 221235Z AUTO 00000KT M1/4SM OVC001 06/06 A3012 RMK AO1
KOLG 221215Z AUTO 00000KT M1/4SM OVC001 06/05 A3011 RMK AO1
KOLG 221155Z AUTO 00000KT M1/4SM OVC001 06/06 A3011 RMK AO1
KOLG 221135Z AUTO 00000KT 1/4SM OVC001 06/06 A3010 RMK AO1
KOLG 221115Z AUTO 00000KT 1/4SM OVC001 05/05 A3010 RMK AO1
KOLG 221055Z AUTO 00000KT 1/4SM OVC001 06/06 A3009 RMK AO1
KOLG 221035Z AUTO 00000KT 1/4SM OVC003 06/06 A3009 RMK AO1
KOLG 221015Z AUTO 00000KT 1/4SM OVC003 07/07 A3009 RMK AO1
KOLG 220955Z AUTO 00000KT 1/4SM OVC003 07/07 A3009 RMK AO1
KOLG 220935Z AUTO 00000KT 1/4SM OVC003 07/07 A3009 RMK AO1
KOLG 220915Z AUTO 00000KT 1/4SM OVC003 08/07 A3009 RMK AO1
KOLG 220855Z AUTO 00000KT 1/4SM OVC003 08/07 A3009 RMK AO1
KOLG 220835Z AUTO 00000KT 1/4SM VV002 08/08 A3009 RMK AO1
KOLG 220815Z AUTO 00000KT 1/2SM VV005 09/09 A3009 RMK AO1
KOLG 220755Z AUTO 00000KT 1/2SM VV005 10/10 A3009 RMK AO1
KOLG 220735Z AUTO 00000KT 1SM VV007 10/10 A3009 RMK AO1
KOLG 220715Z AUTO 00000KT 3/4SM BKN003 09/09 A3009 RMK AO1
KOLG 220655Z AUTO 00000KT 1/4SM OVC003 09/08 A3009 RMK AO1
KOLG 220635Z AUTO 00000KT 1/4SM OVC003 10/09 A3008 RMK AO1
KOLG 220615Z AUTO 00000KT 3/4SM VV005 10/10 A3008 RMK AO1
KOLG 220555Z AUTO 00000KT 3/4SM VV005 08/08 A3008 RMK AO1 VIS 1/2V5
KOLG 220535Z AUTO 00000KT 4SM CLR 10/09 A3008 RMK AO1
KOLG 220515Z AUTO 00000KT 1 1/4SM VV007 10/10 A3008 RMK AO1 VIS 1/2V4
KOLG 220455Z AUTO 00000KT 5SM CLR 10/10 A3008 RMK AO1
KOLG 220435Z AUTO 17004KT 7SM CLR 10/10 A3008 RMK AO1
KOLG 220415Z AUTO 00000KT 7SM CLR 11/11 A3008 RMK AO1
KOLG 220355Z AUTO 00000KT 10SM CLR 11/11 A3008 RMK AO1
KOLG 220335Z AUTO 00000KT 10SM CLR 11/11 A3007 RMK AO1
KOLG 220315Z AUTO 00000KT 10SM CLR 12/11 A3007 RMK AO1
KOLG 220255Z AUTO 19003KT 10SM CLR 12/12 A3007 RMK AO1
KOLG 220235Z AUTO 00000KT 10SM CLR 13/13 A3007 RMK AO1
KOLG 220215Z AUTO 00000KT 10SM CLR 16/13 A3007 RMK AO1
KOLG 220155Z AUTO 18004KT 10SM CLR 16/13 A3007 RMK AO1
KOLG 220135Z AUTO 19004KT 10SM CLR 16/12 A3007 RMK AO1
KOLG 220115Z AUTO 19006KT 10SM CLR 17/12 A3005 RMK AO1
KOLG 220055Z AUTO 18006KT 10SM CLR 18/12 A3005 RMK AO1
KOLG 220035Z AUTO 18005KT 10SM CLR 18/13 A3005 RMK AO1
KOLG 220015Z AUTO 18005KT 10SM CLR 18/13 A3004 RMK AO1
KOLG 212355Z AUTO 18005KT 10SM CLR 20/13 A3004 RMK AO1
KOLG 212335Z AUTO 19006KT 10SM CLR 20/12 A3004 RMK AO1
KOLG 212315Z AUTO 20008KT 10SM SCT080 SCT110 21/12 A3004 RMK AO1
KOLG 212255Z AUTO 20006KT 10SM CLR 21/13 A3004 RMK AO1
KOLG 212235Z AUTO 20007G15KT 10SM SCT080 21/12 A3004 RMK AO1
KOLG 212215Z AUTO 20009KT 10SM BKN090 21/13 A3003 RMK AO1
KOLG 212155Z AUTO 20009KT 10SM BKN090 21/13 A3003 RMK AO1
KOLG 212135Z AUTO 21005KT 10SM OVC090 21/15 A3004 RMK AO1
KOLG 212115Z AUTO 00000KT 10SM OVC090 19/15 A3004 RMK AO1
KOLG 212055Z AUTO 00000KT 10SM SCT033 SCT050 BKN090 19/15 A3004 RMK AO1
KOLG 212035Z AUTO 19005KT 10SM SCT038 SCT049 BKN085 21/12 A3004 RMK AO1
KOLG 212015Z AUTO 19007G15KT 10SM OVC085 21/12 A3005 RMK AO1
KOLG 211955Z AUTO 18012G17KT 150V230 10SM BKN085 22/12 A3005 RMK AO1
KOLG 211935Z AUTO 19010G17KT 160V220 10SM SCT085 23/12 A3004 RMK AO1
KOLG 211915Z AUTO 20006KT 10SM SCT085 22/11 A3005 RMK AO1
KOLG 211855Z AUTO 21010G15KT 10SM SCT110 22/11 A3006 RMK AO1
KOLG 211835Z AUTO 19010G16KT 10SM BKN110 22/11 A3007 RMK AO1
KOLG 211815Z AUTO 19011G15KT 10SM CLR 22/11 A3008 RMK AO1
KOLG 211755Z AUTO 20012G16KT 10SM CLR 21/11 A3008 RMK AO1
KOLG 211735Z AUTO 21010G15KT 10SM CLR 21/11 A3009 RMK AO1
KOLG 211715Z AUTO 18010G17KT 10SM CLR 21/11 A3009 RMK AO1
KOLG 211655Z AUTO 19009G15KT 10SM CLR 20/11 A3009 RMK AO1
KOLG 211635Z AUTO 19011G18KT 10SM CLR 20/10 A3010 RMK AO1
KOLG 211615Z AUTO 19010G16KT 160V230 10SM CLR 19/10 A3010 RMK AO1
KOLG 211555Z AUTO 20011G18KT 10SM CLR 19/10 A3011 RMK AO1
KOLG 211535Z AUTO 20010G16KT 10SM CLR 18/09 A3011 RMK AO1
KOLG 211515Z AUTO 19008G17KT 10SM CLR 17/09 A3012 RMK AO1
KOLG 211455Z AUTO 19010KT 160V230 10SM CLR 17/08 A3012 RMK AO1
KOLG 211435Z AUTO 19008G14KT 150V220 10SM CLR 16/08 A3012 RMK AO1
KOLG 211415Z AUTO 20011G17KT 10SM CLR 15/08 A3012 RMK AO1
KOLG 211355Z AUTO 19009G14KT 10SM CLR 15/07 A3012 RMK AO1
KOLG 211335Z AUTO 18008KT 10SM CLR 15/07 A3012 RMK AO1
KOLG 211315Z AUTO 18006KT 10SM CLR 13/07 A3012 RMK AO1
KOLG 211255Z AUTO 18005KT 10SM CLR 13/07 A3013 RMK AO1
KOLG 211235Z AUTO 18004KT 10SM CLR 13/06 A3013 RMK AO1
KOLG 211215Z AUTO 18005KT 10SM CLR 12/06 A3012 RMK AO1
KOLG 211155Z AUTO 17006KT 10SM CLR 12/06 A3012 RMK AO1
KOLG 211135Z AUTO 18006KT 10SM CLR 13/06 A3012 RMK AO1
KOLG 211115Z AUTO 17006KT 10SM CLR 13/06 A3012 RMK AO1
KOLG 211055Z AUTO 19007KT 10SM CLR 13/06 A3012 RMK AO1
KOLG 211035Z AUTO 18006KT 10SM CLR 13/06 A3012 RMK AO1
KOLG 211015Z AUTO 18007KT 10SM CLR 13/06 A3012 RMK AO1
KOLG 210955Z AUTO 18007KT 10SM CLR 14/06 A3012 RMK AO1
KOLG 210935Z AUTO 18008KT 10SM CLR 14/06 A3012 RMK AO1
KOLG 210915Z AUTO 18007KT 10SM CLR 15/06 A3012 RMK AO1